^^
Grace C. Lehan Memorial Weather Station Historical Data
Daily Summary for May 2, 2022 Units:  English    Metric   Both
Daily Weekly Monthly Yearly
  High: Low: Average:
Temperature: 82.8 °F 68.1 °F 70.5 °F
Dew Point: 73.7 °F 66.3 °F 68.1 °F
Humidity: 95% 73.6% 92%
Wind Speed: 0mph 0mph 0mph
Wind Gust: 2mph - -
Wind- -
Pressure: 29.81 in 29.77 in -
Precipitation: 0.00 in    
 
 
Tabular Data for May 2, 2022
Time Temperature Dew Point Pressure Wind Wind Speed Wind Gust Humidity Rainfall Rate (Hourly) solar
00:00 69.8 °F 67.4 °F 29.81 in Calm     92% 0.00 in 0 W/m2
00:09 69.6 °F 67.2 °F 29.81 in Calm     92% 0.00 in 0 W/m2
00:14 69.5 °F 67.3 °F 29.81 in Calm     92.5% 0.00 in 0 W/m2
00:19 69.5 °F 67.4 °F 29.81 in Calm     93% 0.00 in 0 W/m2
00:24 69.4 °F 67.3 °F 29.81 in Calm     93% 0.00 in 0 W/m2
00:29 69.4 °F 67.3 °F 29.81 in Calm     93% 0.00 in 0 W/m2
00:34 69.3 °F 67.2 °F 29.81 in Calm     93% 0.00 in 0 W/m2
00:39 69.2 °F 67.1 °F 29.81 in Calm     93% 0.00 in 0 W/m2
00:44 69.2 °F 67.1 °F 29.80 in Calm     93% 0.00 in 0 W/m2
00:49 69.2 °F 67.1 °F 29.80 in Calm     93% 0.00 in 0 W/m2
00:54 69.1 °F 67 °F 29.80 in Calm     93% 0.00 in 0 W/m2
00:59 69.1 °F 67 °F 29.80 in Calm     93% 0.00 in 0 W/m2
01:04 69 °F 66.9 °F 29.80 in Calm     93% 0.00 in 0 W/m2
01:09 68.9 °F 66.8 °F 29.80 in Calm     93% 0.00 in 0 W/m2
01:14 68.9 °F 66.9 °F 29.80 in Calm     93.5% 0.00 in 0 W/m2
01:19 68.8 °F 67 °F 29.80 in Calm     94% 0.00 in 0 W/m2
01:24 68.7 °F 66.9 °F 29.80 in Calm     94% 0.00 in 0 W/m2
01:29 68.7 °F 66.9 °F 29.79 in Calm     94% 0.00 in 0 W/m2
01:34 68.6 °F 66.8 °F 29.79 in Calm     94% 0.00 in 0 W/m2
01:39 68.6 °F 66.8 °F 29.79 in Calm     94% 0.00 in 0 W/m2
01:44 68.6 °F 66.8 °F 29.79 in Calm     94% 0.00 in 0 W/m2
01:49 68.5 °F 66.7 °F 29.79 in Calm     94% 0.00 in 0 W/m2
01:54 68.4 °F 66.6 °F 29.79 in Calm     94% 0.00 in 0 W/m2
01:59 68.3 °F 66.5 °F 29.79 in Calm     94% 0.00 in 0 W/m2
02:04 68.2 °F 66.4 °F 29.79 in Calm     94% 0.00 in 0 W/m2
02:09 68.1 °F 66.3 °F 29.79 in Calm     94% 0.00 in 0 W/m2
02:14 68.1 °F 66.3 °F 29.79 in Calm     94% 0.00 in 0 W/m2
02:19 68.1 °F 66.3 °F 29.79 in Calm     94% 0.00 in 0 W/m2
02:24 68.1 °F 66.3 °F 29.79 in Calm     94% 0.00 in 0 W/m2
02:29 68.1 °F 66.3 °F 29.79 in Calm     94% 0.00 in 0 W/m2
02:34 68.1 °F 66.4 °F 29.78 in Calm     94.2% 0.00 in 0 W/m2
02:39 68.1 °F 66.6 °F 29.78 in Calm     95% 0.00 in 0 W/m2
02:44 68.1 °F 66.6 °F 29.78 in Calm     95% 0.00 in 0 W/m2
02:49 68.2 °F 66.7 °F 29.79 in Calm     95% 0.00 in 0 W/m2
02:54 68.2 °F 66.7 °F 29.79 in Calm     95% 0.00 in 0 W/m2
02:59 68.2 °F 66.7 °F 29.78 in Calm     95% 0.00 in 0 W/m2
03:04 68.2 °F 66.7 °F 29.78 in Calm     95% 0.00 in 0 W/m2
03:09 68.2 °F 66.8 °F 29.78 in Calm     95% 0.00 in 0 W/m2
03:14 68.3 °F 66.8 °F 29.78 in Calm     95% 0.00 in 0 W/m2
03:19 68.3 °F 66.8 °F 29.78 in Calm     95% 0.00 in 0 W/m2
03:24 68.3 °F 66.8 °F 29.78 in Calm     95% 0.00 in 0 W/m2
03:29 68.3 °F 66.8 °F 29.78 in Calm     95% 0.00 in 0 W/m2
03:34 68.3 °F 66.8 °F 29.78 in Calm     95% 0.00 in 0 W/m2
03:39 68.2 °F 66.7 °F 29.78 in Calm     95% 0.00 in 0 W/m2
03:44 68.2 °F 66.7 °F 29.78 in Calm     95% 0.00 in 0 W/m2
03:49 68.1 °F 66.6 °F 29.78 in Calm     95% 0.00 in 0 W/m2
03:54 68.1 °F 66.6 °F 29.78 in Calm     95% 0.00 in 0 W/m2
03:59 68.1 °F 66.6 °F 29.78 in Calm     95% 0.00 in 0 W/m2
04:00 68.1 °F 66.6 °F 29.78 in Calm     95% 0.00 in 0 W/m2
04:09 68.3 °F 66.8 °F 29.78 in Calm     95% 0.00 in 0 W/m2
04:14 68.3 °F 66.8 °F 29.78 in Calm     95% 0.00 in 0 W/m2
04:19 68.3 °F 66.8 °F 29.78 in Calm     95% 0.00 in 0 W/m2
04:24 68.3 °F 66.8 °F 29.78 in Calm     95% 0.00 in 0 W/m2
04:29 68.3 °F 66.8 °F 29.78 in Calm     95% 0.00 in 0 W/m2
04:34 68.3 °F 66.8 °F 29.78 in Calm     95% 0.00 in 0 W/m2
04:39 68.4 °F 66.9 °F 29.78 in Calm   1 mph 95% 0.00 in 0 W/m2
04:44 68.4 °F 66.9 °F 29.78 in Calm   1 mph 95% 0.00 in 0 W/m2
04:49 68.5 °F 67 °F 29.78 in Calm   1 mph 95% 0.00 in 0 W/m2
04:54 68.6 °F 67.1 °F 29.78 in Calm   1 mph 95% 0.00 in 0 W/m2
04:59 68.6 °F 67.1 °F 29.77 in Calm   1 mph 95% 0.00 in 0 W/m2
05:04 68.7 °F 67.2 °F 29.77 in Calm   1 mph 95% 0.00 in 0 W/m2
05:09 68.7 °F 67.2 °F 29.77 in Calm     95% 0.00 in 0 W/m2
05:14 68.7 °F 67.2 °F 29.77 in Calm     95% 0.00 in 0 W/m2
05:19 68.8 °F 67.3 °F 29.77 in Calm     95% 0.00 in 0 W/m2
05:24 68.8 °F 67.3 °F 29.77 in Calm     95% 0.00 in 0 W/m2
05:29 68.8 °F 67.3 °F 29.77 in Calm     95% 0.00 in 0 W/m2
05:34 68.8 °F 67.3 °F 29.77 in Calm     95% 0.00 in 0 W/m2
05:39 68.9 °F 67.4 °F 29.77 in Calm     95% 0.00 in 0 W/m2
05:44 68.9 °F 67.4 °F 29.78 in Calm     95% 0.00 in 0 W/m2
05:49 69 °F 67.5 °F 29.78 in Calm     95% 0.00 in 0 W/m2
05:54 69.1 °F 67.6 °F 29.78 in Calm     95% 0.00 in 5 W/m2
05:59 69.2 °F 67.7 °F 29.78 in Calm     95% 0.00 in 7 W/m2
06:04 69.2 °F 67.7 °F 29.78 in Calm     95% 0.00 in 9 W/m2
06:09 69.3 °F 67.8 °F 29.78 in Calm     95% 0.00 in 7 W/m2
06:14 69.3 °F 67.9 °F 29.78 in Calm     95% 0.00 in 9 W/m2
06:19 69.4 °F 67.9 °F 29.78 in Calm     95% 0.00 in 16 W/m2
06:24 69.4 °F 67.9 °F 29.78 in Calm     95% 0.00 in 25 W/m2
06:29 69.5 °F 68 °F 29.78 in Calm     95% 0.00 in 26 W/m2
06:34 69.5 °F 68 °F 29.78 in Calm     95% 0.00 in 25 W/m2
06:39 69.6 °F 68.1 °F 29.79 in Calm     95% 0.00 in 19 W/m2
06:44 69.6 °F 68.1 °F 29.79 in Calm     95% 0.00 in 19 W/m2
06:49 69.7 °F 68.2 °F 29.78 in Calm     95% 0.00 in 49 W/m2
06:54 69.7 °F 68.3 °F 29.78 in Calm     95% 0.00 in 79 W/m2
06:59 70 °F 68.5 °F 29.78 in Calm     95% 0.00 in 79 W/m2
07:04 70.2 °F 68.7 °F 29.78 in Calm     95% 0.00 in 132 W/m2
07:09 70.5 °F 69 °F 29.78 in Calm     95% 0.00 in 132 W/m2
07:14 70.8 °F 69.3 °F 29.78 in Calm     95% 0.00 in 76 W/m2
07:19 71.1 °F 69.6 °F 29.79 in Calm     95% 0.00 in 172 W/m2
07:24 71.5 °F 70 °F 29.79 in Calm     95% 0.00 in 183 W/m2
07:29 71.9 °F 70.4 °F 29.78 in Calm     95% 0.00 in 207 W/m2
07:34 72.5 °F 70.8 °F 29.79 in Calm     94.3% 0.00 in 220 W/m2
07:39 73.2 °F 71.2 °F 29.78 in Calm     93.7% 0.00 in 241 W/m2
07:44 73.8 °F 71.4 °F 29.78 in Calm     92.4% 0.00 in 262 W/m2
07:49 74.3 °F 71.3 °F 29.78 in Calm   1 mph 90.3% 0.00 in 294 W/m2
07:54 75 °F 71.5 °F 29.78 in Calm   1 mph 88.9% 0.00 in 329 W/m2
07:59 75.8 °F 71.7 °F 29.78 in Calm   2 mph 87.1% 0.00 in 329 W/m2
08:00 76.1 °F 71.3 °F 29.78 in Calm   2 mph 85% 0.00 in 120 W/m2
08:09 76.8 °F 71.6 °F 29.78 in Calm     84% 0.00 in 367 W/m2
08:14 77.3 °F 71.7 °F 29.78 in Calm     82.9% 0.00 in 399 W/m2
08:19 77.9 °F 71.9 °F 29.78 in Calm   1 mph 81.9% 0.00 in 404 W/m2
08:24 78.4 °F 71.9 °F 29.78 in Calm   1 mph 80.4% 0.00 in 425 W/m2
08:29 79 °F 72.1 °F 29.78 in Calm   1 mph 79.4% 0.00 in 441 W/m2
08:34 79.6 °F 72.2 °F 29.78 in Calm   1 mph 78.1% 0.00 in 457 W/m2
08:39 80.2 °F 72.2 °F 29.77 in Calm     76.8% 0.00 in 471 W/m2
08:44 80.4 °F 71.8 °F 29.77 in Calm     75% 0.00 in 483 W/m2
08:49 80.6 °F 72.1 °F 29.77 in Calm     75.4% 0.00 in 494 W/m2
08:54 81.2 °F 72.9 °F 29.77 in Calm   1 mph 75.9% 0.00 in 510 W/m2
08:59 81.7 °F 73.1 °F 29.77 in Calm   1 mph 75.1% 0.00 in 526 W/m2
09:04 82.3 °F 73.7 °F 29.77 in Calm   1 mph 75.3% 0.00 in 538 W/m2
09:08 82.8 °F 73.5 °F 29.77 in Calm     73.6% 0.00 in 548 W/m2
Hartford County Weather
Compliments of Weather Underground - 2 mb